Time;durP1;ratioP1;P1;durP2;ratioP2;P2;SDS_P1;SDS_P2;PMS_P1;PMS_P2;Temp;Humidity;BMP_temperature;BMP_pressure;BME280_temperature;BME280_humidity;BME280_pressure;Samples;Min_cycle;Max_cycle;Signal;HPM_P1;HPM_P2
2021/08/30 00:01:19;;;;;;;32.90;14.40;;;;;;;17.21;71.29;99645.69;5134441;27;20104;-76
2021/08/30 00:03:45;;;;;;;30.90;13.77;;;;;;;17.18;71.22;99635.34;5134112;27;20130;-76
2021/08/30 00:06:20;;;;;;;34.20;14.70;;;;;;;17.14;71.85;99642.84;5134159;27;20061;-76
2021/08/30 00:08:46;;;;;;;43.47;14.82;;;;;;;17.07;72.15;99647.16;5134090;27;20652;-81
2021/08/30 00:11:12;;;;;;;41.67;18.23;;;;;;;17.03;72.56;99645.81;5132480;27;20047;-73
2021/08/30 00:13:38;;;;;;;34.58;14.95;;;;;;;16.98;72.72;99646.28;5134036;27;20043;-77
2021/08/30 00:16:04;;;;;;;32.65;16.42;;;;;;;16.91;72.88;99648.78;5133843;27;20046;-75
2021/08/30 00:18:30;;;;;;;61.47;27.15;;;;;;;16.92;73.09;99641.59;5133384;27;20092;-79
2021/08/30 00:20:56;;;;;;;43.78;21.30;;;;;;;16.85;73.16;99643.19;5133623;27;20050;-74
2021/08/30 00:23:22;;;;;;;46.05;16.50;;;;;;;16.79;73.47;99647.34;5133456;27;20184;-75
2021/08/30 00:25:48;;;;;;;30.88;14.80;;;;;;;16.79;73.45;99648.19;5133515;27;20539;-79
2021/08/30 00:28:14;;;;;;;42.65;19.08;;;;;;;16.79;73.49;99644.69;5133379;27;20122;-73
2021/08/30 00:30:39;;;;;;;50.58;18.30;;;;;;;16.83;73.51;99651.38;5131864;27;20061;-74
2021/08/30 00:33:05;;;;;;;55.67;22.90;;;;;;;16.87;73.01;99651.91;5133205;27;20073;-74
2021/08/30 00:35:31;;;;;;;52.40;21.33;;;;;;;16.90;73.03;99651.59;5133227;27;20448;-75
2021/08/30 00:37:57;;;;;;;52.63;17.80;;;;;;;16.92;72.48;99646.94;5133302;27;20046;-74
2021/08/30 00:40:22;;;;;;;60.90;23.85;;;;;;;16.92;72.62;99654.94;5130538;27;20491;-75
2021/08/30 00:42:49;;;;;;;47.03;19.67;;;;;;;16.95;72.65;99650.13;5133061;27;20062;-72
2021/08/30 00:45:15;;;;;;;52.22;19.55;;;;;;;16.97;72.57;99650.81;5133205;27;20043;-72
2021/08/30 00:47:43;;;;;;;48.72;16.55;;;;;;;16.98;72.27;99646.28;5132427;27;20070;-74
2021/08/30 00:50:11;;;;;;;55.63;15.77;;;;;;;16.98;71.70;99635.59;5133043;27;20122;-73
2021/08/30 00:52:37;;;;;;;36.65;14.63;;;;;;;16.98;71.06;99632.94;5132854;27;20115;-76
2021/08/30 00:55:04;;;;;;;40.90;15.25;;;;;;;17.05;70.77;99635.81;5132898;27;20039;-75
2021/08/30 00:57:30;;;;;;;53.10;16.00;;;;;;;17.06;70.26;99632.13;5132678;27;20598;-76
2021/08/30 00:59:56;;;;;;;34.65;13.93;;;;;;;17.05;69.89;99633.16;5132980;27;20148;-72
2021/08/30 01:02:22;;;;;;;40.95;15.70;;;;;;;17.04;69.66;99631.47;5133175;27;20045;-79
2021/08/30 01:04:48;;;;;;;41.10;15.25;;;;;;;17.03;69.47;99622.59;5132765;27;20081;-75
2021/08/30 01:07:38;;;;;;;37.83;15.13;;;;;;;17.06;69.56;99621.44;5131501;27;20047;-74
2021/08/30 01:10:08;;;;;;;37.50;14.48;;;;;;;16.98;69.54;99628.44;5131206;27;20133;-76
2021/08/30 01:13:00;;;;;;;45.75;16.42;;;;;;;17.00;69.83;99627.41;5132618;27;20043;-78
2021/08/30 01:15:39;;;;;;;31.90;15.27;;;;;;;16.95;69.64;99618.06;5051937;28;20068;-74
2021/08/30 01:18:07;;;;;;;38.05;15.00;;;;;;;16.94;69.79;99624.41;5068820;28;20055;-77
2021/08/30 01:20:44;;;;;;;48.78;15.93;;;;;;;16.96;69.79;99622.41;5068578;28;20513;-75
2021/08/30 01:23:11;;;;;;;37.22;13.75;;;;;;;16.94;69.71;99616.38;5035159;28;20045;-73
2021/08/30 01:25:37;;;;;;;41.25;15.20;;;;;;;16.94;69.49;99615.56;5068395;28;20048;-76
2021/08/30 01:28:04;;;;;;;53.58;15.45;;;;;;;16.92;69.42;99618.41;5068690;28;20385;-74
2021/08/30 01:30:30;;;;;;;43.72;14.50;;;;;;;16.89;69.77;99621.34;5051718;28;20056;-75
2021/08/30 01:32:58;;;;;;;35.90;13.40;;;;;;;16.91;69.56;99621.19;5068510;28;20049;-75
2021/08/30 01:35:26;;;;;;;41.85;15.27;;;;;;;16.91;69.36;99611.38;5068589;28;20139;-74
2021/08/30 01:37:55;;;;;;;37.67;13.73;;;;;;;16.91;69.43;99610.50;5067580;28;20040;-76
2021/08/30 01:40:24;;;;;;;35.30;15.15;;;;;;;16.86;69.93;99613.66;5068725;28;20061;-74
2021/08/30 01:42:52;;;;;;;37.47;15.00;;;;;;;16.84;69.89;99622.84;5052319;28;20428;-77
2021/08/30 01:45:25;;;;;;;;;;;;;;;16.81;69.81;99627.50;5069123;28;20054;-77
2021/08/30 01:47:53;;;;;;;29.23;13.98;;;;;;;16.83;70.79;99635.34;5051789;28;20397;-75
2021/08/30 01:50:21;;;;;;;;;;;;;;;16.79;71.83;99634.00;5069227;28;20135;-79
2021/08/30 01:52:49;;;;;;;32.70;14.27;;;;;;;16.58;71.99;99629.88;5110868;28;19915;-75
2021/08/30 02:00:52;;;;;;;42.97;15.80;;;;;;;16.40;71.90;99634.44;5129188;28;20095;-74
2021/08/30 02:03:22;;;;;;;34.30;14.25;;;;;;;16.40;72.31;99626.44;5121703;28;20091;-74
2021/08/30 02:05:50;;;;;;;40.15;16.58;;;;;;;16.37;73.19;99624.91;5112812;28;20043;-76
2021/08/30 02:08:17;;;;;;;39.38;14.80;;;;;;;16.30;73.65;99619.38;5130844;27;20157;-76
2021/08/30 02:10:43;;;;;;;35.40;13.75;;;;;;;16.38;73.52;99625.75;5130465;28;20419;-74
2021/08/30 02:13:10;;;;;;;38.77;15.50;;;;;;;16.46;73.65;99617.78;5131682;27;20129;-76
2021/08/30 02:15:35;;;;;;;33.58;14.40;;;;;;;16.54;73.19;99628.53;5131546;27;20050;-77
2021/08/30 02:18:08;;;;;;;39.25;14.15;;;;;;;16.48;72.37;99682.56;5131670;27;20411;-76
2021/08/30 02:20:36;;;;;;;35.33;13.65;;;;;;;16.54;71.70;99668.56;5130485;28;20068;-75
2021/08/30 02:23:03;;;;;;;35.33;13.43;;;;;;;16.52;71.24;99702.59;5130587;28;20041;-76
2021/08/30 02:25:29;;;;;;;33.85;12.73;;;;;;;16.55;71.27;99669.41;5131746;28;20039;-77
2021/08/30 02:27:57;;;;;;;37.60;13.35;;;;;;;16.50;71.45;99699.25;5131911;27;20075;-76
2021/08/30 02:30:31;;;;;;;34.72;14.60;;;;;;;16.53;71.85;99701.59;5130419;28;20138;-78
2021/08/30 02:33:01;;;;;;;36.53;16.63;;;;;;;16.41;72.75;99716.19;5130286;27;20039;-77
2021/08/30 02:35:30;;;;;;;37.90;19.50;;;;;;;16.30;73.51;99699.44;5132035;27;20047;-75
2021/08/30 02:37:57;;;;;;;34.05;14.15;;;;;;;16.28;73.84;99696.09;5134331;27;20095;-75
2021/08/30 02:40:27;;;;;;;29.85;14.07;;;;;;;16.24;73.96;99697.41;5135779;27;20039;-75
2021/08/30 02:42:54;;;;;;;33.03;13.25;;;;;;;16.27;73.60;99699.75;5135215;27;20560;-77
2021/08/30 02:45:21;;;;;;;31.92;14.10;;;;;;;16.33;73.40;99693.78;5134825;27;20043;-73
2021/08/30 02:47:48;;;;;;;28.77;13.07;;;;;;;16.37;73.37;99688.16;5133753;27;20052;-74
2021/08/30 02:50:14;;;;;;;29.58;12.95;;;;;;;16.45;73.07;99688.22;5134161;27;20066;-75
2021/08/30 02:52:40;;;;;;;24.65;12.18;;;;;;;16.57;72.74;99684.28;5134673;27;20047;-75
2021/08/30 02:55:07;;;;;;;33.40;12.82;;;;;;;16.63;72.62;99693.50;5135225;27;20034;-75
2021/08/30 02:57:33;;;;;;;34.97;13.03;;;;;;;16.79;71.78;99679.41;5135078;27;20043;-76
2021/08/30 03:00:00;;;;;;;29.73;12.23;;;;;;;16.94;71.57;99674.34;5135093;27;20043;-76
2021/08/30 03:02:26;;;;;;;31.80;12.82;;;;;;;16.97;71.32;99674.00;5116688;27;20047;-75
2021/08/30 03:04:53;;;;;;;32.78;13.52;;;;;;;17.09;71.13;99679.91;5132737;27;20043;-75
2021/08/30 03:07:25;;;;;;;22.73;12.35;;;;;;;17.24;70.81;99686.31;5132935;27;20081;-75
2021/08/30 03:09:51;;;;;;;33.60;13.60;;;;;;;17.37;70.18;99685.88;5131851;27;20418;-73
2021/08/30 03:12:18;;;;;;;26.27;13.35;;;;;;;17.49;70.18;99677.53;5132869;27;20042;-74
2021/08/30 03:14:46;;;;;;;32.42;13.20;;;;;;;17.44;70.60;99678.03;5133145;27;20043;-74
2021/08/30 03:17:12;;;;;;;;;;;;;;;17.52;70.94;99680.75;5134661;27;20437;-76
2021/08/30 03:19:43;;;;;;;31.25;13.23;;;;;;;17.55;70.95;99683.06;5133321;27;19979;-74
2021/08/30 03:22:10;;;;;;;33.45;14.55;;;;;;;17.59;71.41;99679.06;5133557;27;20460;-73
2021/08/30 03:24:39;;;;;;;25.20;13.55;;;;;;;17.68;71.78;99671.06;5132932;27;20123;-74
2021/08/30 03:27:05;;;;;;;32.85;14.32;;;;;;;17.75;71.76;99658.69;5133046;27;20043;-74
2021/08/30 03:29:31;;;;;;;30.20;14.82;;;;;;;17.82;72.52;99662.41;5133941;27;20055;-73
2021/08/30 03:31:57;;;;;;;71.80;32.05;;;;;;;17.88;72.61;99664.41;5132994;27;20050;-72
2021/08/30 03:34:23;;;;;;;31.25;15.85;;;;;;;17.95;73.17;99649.38;5131845;27;20047;-76
2021/08/30 03:36:49;;;;;;;32.63;16.58;;;;;;;17.95;73.95;99657.41;5134441;27;20039;-75
2021/08/30 03:39:16;;;;;;;30.98;15.95;;;;;;;17.99;73.98;99657.06;5133037;27;20476;-75
2021/08/30 03:41:43;;;;;;;27.98;15.35;;;;;;;18.06;74.49;99648.22;5132682;27;20549;-73
2021/08/30 03:44:10;;;;;;;28.42;15.88;;;;;;;18.15;75.21;99656.25;5134535;27;20095;-77
2021/08/30 03:46:37;;;;;;;30.58;16.10;;;;;;;18.21;75.48;99651.03;5133261;27;20078;-75
2021/08/30 03:49:03;;;;;;;28.38;15.80;;;;;;;18.29;75.30;99647.50;5133065;27;20039;-72
2021/08/30 03:51:30;;;;;;;31.00;17.23;;;;;;;18.40;75.34;99643.66;5134098;27;20135;-76
2021/08/30 03:53:56;;;;;;;31.20;16.27;;;;;;;18.46;75.38;99629.59;5133705;27;20039;-74
2021/08/30 03:56:23;;;;;;;25.92;15.68;;;;;;;18.55;75.38;99631.22;5133397;27;20416;-74
2021/08/30 03:58:50;;;;;;;27.03;14.77;;;;;;;18.59;75.39;99627.22;5133487;27;20118;-73
2021/08/30 04:01:19;;;;;;;28.13;15.13;;;;;;;18.58;75.44;99630.91;5132662;27;20039;-79
2021/08/30 04:03:47;;;;;;;33.35;15.52;;;;;;;18.61;75.84;99626.22;5130851;27;20059;-75
2021/08/30 04:06:14;;;;;;;26.05;14.95;;;;;;;18.65;75.58;99627.53;5133180;27;20042;-75
2021/08/30 04:08:40;;;;;;;26.63;16.15;;;;;;;18.69;75.81;99620.81;5132175;27;20130;-74
2021/08/30 04:11:09;;;;;;;28.10;15.38;;;;;;;18.66;75.61;99626.53;5133550;27;20122;-75
2021/08/30 04:13:35;;;;;;;27.40;14.98;;;;;;;18.62;75.33;99628.72;5131670;27;20110;-75
2021/08/30 04:16:01;;;;;;;26.48;15.75;;;;;;;18.58;75.82;99636.25;5132244;27;20042;-79
2021/08/30 04:18:27;;;;;;;25.42;15.75;;;;;;;18.61;75.74;99624.34;5133311;27;20545;-73
2021/08/30 04:20:53;;;;;;;27.02;15.57;;;;;;;18.64;75.70;99634.75;5133212;27;20057;-74
2021/08/30 04:23:18;;;;;;;24.98;14.43;;;;;;;18.62;75.64;99635.91;5133259;27;20043;-76
2021/08/30 04:25:44;;;;;;;37.22;20.27;;;;;;;18.68;75.85;99654.81;5132833;27;20039;-75
2021/08/30 04:28:10;;;;;;;26.75;15.20;;;;;;;18.51;76.50;99672.75;5133330;27;20582;-74
2021/08/30 04:30:36;;;;;;;25.27;15.48;;;;;;;18.51;76.24;99677.28;5132887;27;20095;-73
2021/08/30 04:33:02;;;;;;;30.52;17.02;;;;;;;18.50;76.07;99692.50;5131678;27;20130;-74
2021/08/30 04:35:28;;;;;;;31.33;17.50;;;;;;;18.47;76.22;99695.53;5132853;27;20084;-77
2021/08/30 04:37:54;;;;;;;29.50;16.98;;;;;;;18.43;76.63;99708.44;5132639;27;20127;-78
2021/08/30 04:40:20;;;;;;;32.47;17.90;;;;;;;18.47;76.71;99703.56;5132982;27;20767;-74
2021/08/30 04:42:46;;;;;;;37.30;18.98;;;;;;;18.43;77.09;99688.84;5132886;27;20126;-74
2021/08/30 04:45:11;;;;;;;36.25;18.88;;;;;;;18.30;77.60;99683.19;5132853;27;20507;-74
2021/08/30 04:47:37;;;;;;;31.00;17.80;;;;;;;18.29;77.82;99665.44;5132736;27;20496;-75
2021/08/30 04:50:04;;;;;;;34.13;18.55;;;;;;;18.27;78.58;99671.78;5132808;27;20039;-75
2021/08/30 04:52:30;;;;;;;35.63;19.40;;;;;;;18.22;79.46;99692.88;5132501;27;20047;-74
2021/08/30 04:54:56;;;;;;;37.42;19.83;;;;;;;18.25;79.85;99692.53;5132401;27;20043;-73
2021/08/30 04:57:21;;;;;;;34.83;18.20;;;;;;;18.33;79.60;99677.47;5132318;27;20134;-75
2021/08/30 04:59:47;;;;;;;34.42;18.95;;;;;;;18.27;78.83;99689.69;5132282;27;20377;-75
2021/08/30 05:02:13;;;;;;;40.28;20.30;;;;;;;18.19;79.27;99705.75;5131650;27;20372;-81
2021/08/30 05:04:39;;;;;;;37.78;20.02;;;;;;;18.14;79.63;99703.56;5132714;27;20050;-74
2021/08/30 05:07:04;;;;;;;42.92;21.30;;;;;;;18.00;80.12;99677.50;5132571;27;20521;-77
2021/08/30 05:09:31;;;;;;;40.67;20.58;;;;;;;17.83;80.17;99674.78;5132826;27;20130;-78
2021/08/30 05:11:57;;;;;;;39.28;19.25;;;;;;;17.54;80.31;99670.69;5132408;27;20042;-76
2021/08/30 05:14:22;;;;;;;40.50;19.83;;;;;;;17.38;80.51;99659.97;5132538;27;20050;-75
2021/08/30 05:16:48;;;;;;;40.13;20.23;;;;;;;17.26;80.34;99665.63;5132496;27;20126;-77
2021/08/30 05:19:14;;;;;;;43.25;19.80;;;;;;;17.22;79.80;99672.28;5132747;27;20042;-79
2021/08/30 05:21:41;;;;;;;35.65;18.10;;;;;;;17.22;79.85;99680.31;5132575;27;20074;-76
2021/08/30 05:24:07;;;;;;;41.65;19.67;;;;;;;17.23;79.46;99684.63;5132603;27;20069;-76
2021/08/30 05:26:34;;;;;;;35.20;18.80;;;;;;;17.20;79.33;99674.28;5132649;27;20039;-75
2021/08/30 05:29:00;;;;;;;38.92;18.67;;;;;;;17.12;79.82;99671.56;5132136;27;20038;-76
2021/08/30 05:31:26;;;;;;;39.63;18.80;;;;;;;17.05;79.57;99665.22;5131453;27;20050;-75
2021/08/30 05:33:52;;;;;;;37.72;18.17;;;;;;;17.10;79.16;99674.41;5131902;27;20422;-79
2021/08/30 05:36:18;;;;;;;33.58;17.25;;;;;;;17.08;78.72;99665.69;5132254;27;20357;-76
2021/08/30 05:38:44;;;;;;;33.72;17.52;;;;;;;17.14;78.15;99669.56;5132293;27;20043;-77
2021/08/30 05:41:10;;;;;;;37.38;18.10;;;;;;;17.21;78.04;99681.31;5132391;27;20460;-79
2021/08/30 05:43:36;;;;;;;39.40;17.73;;;;;;;17.35;77.67;99676.34;5132094;27;20099;-79
2021/08/30 05:46:02;;;;;;;34.83;18.65;;;;;;;17.54;77.04;99689.41;5131538;27;20043;-75
2021/08/30 05:48:27;;;;;;;34.33;17.65;;;;;;;17.68;76.35;99684.44;5131846;27;20043;-76
2021/08/30 05:50:53;;;;;;;39.90;19.15;;;;;;;17.79;76.07;99689.47;5132024;27;20043;-77
2021/08/30 05:53:20;;;;;;;36.05;17.30;;;;;;;17.77;76.11;99696.84;5132299;28;20084;-76
2021/08/30 05:55:46;;;;;;;35.63;18.02;;;;;;;17.83;76.26;99706.88;5131864;27;20112;-78
2021/08/30 05:58:13;;;;;;;38.45;18.67;;;;;;;17.85;75.92;99706.72;5132121;28;20412;-76
2021/08/30 06:00:39;;;;;;;38.88;19.05;;;;;;;17.89;75.84;99700.03;5131060;27;20047;-80
2021/08/30 06:03:05;;;;;;;36.05;18.83;;;;;;;18.02;75.75;99710.25;5132280;28;20043;-74
2021/08/30 06:05:30;;;;;;;35.33;18.05;;;;;;;18.04;75.50;99717.13;5132489;27;20043;-75
2021/08/30 06:07:56;;;;;;;34.45;18.33;;;;;;;18.11;75.52;99714.63;5131674;27;20070;-76
2021/08/30 06:10:22;;;;;;;33.25;17.60;;;;;;;18.13;75.74;99712.63;5134701;27;20046;-77
2021/08/30 06:12:48;;;;;;;33.72;18.15;;;;;;;18.37;75.22;99722.50;5136096;27;20070;-78
2021/08/30 06:15:14;;;;;;;30.35;17.58;;;;;;;18.62;74.61;99718.94;5136142;27;20127;-76
2021/08/30 06:17:40;;;;;;;38.25;17.42;;;;;;;18.78;73.57;99715.41;5135818;27;20128;-76
2021/08/30 06:20:06;;;;;;;34.22;18.33;;;;;;;18.92;72.88;99706.69;5136078;27;20488;-78
2021/08/30 06:22:32;;;;;;;33.15;16.98;;;;;;;19.05;72.16;99715.03;5135905;27;20039;-77
2021/08/30 06:24:58;;;;;;;33.60;17.38;;;;;;;19.26;71.37;99712.78;5135575;27;20043;-75
2021/08/30 06:27:24;;;;;;;32.97;18.10;;;;;;;19.36;71.16;99713.41;5136257;27;20039;-76
2021/08/30 06:29:49;;;;;;;36.55;19.67;;;;;;;19.61;69.84;99699.88;5134657;27;20138;-77
2021/08/30 06:32:15;;;;;;;30.50;16.88;;;;;;;19.67;70.08;99709.91;5134823;27;20509;-78
2021/08/30 06:34:41;;;;;;;30.77;18.08;;;;;;;19.63;70.34;99713.94;5135855;27;20550;-77
2021/08/30 06:37:08;;;;;;;32.78;17.35;;;;;;;19.67;70.57;99715.25;5135744;27;20050;-76
2021/08/30 06:39:34;;;;;;;32.38;16.67;;;;;;;20.26;69.49;99719.25;5136096;27;20084;-75
2021/08/30 06:42:00;;;;;;;28.70;16.90;;;;;;;20.67;67.17;99705.44;5135535;27;20047;-78
2021/08/30 06:44:25;;;;;;;36.22;18.13;;;;;;;21.03;66.00;99706.59;5136046;27;20038;-79
2021/08/30 06:46:51;;;;;;;33.88;17.58;;;;;;;21.08;65.96;99713.06;5135430;27;20043;-76
2021/08/30 06:49:17;;;;;;;29.25;16.35;;;;;;;20.90;66.14;99716.16;5135858;27;20046;-79
2021/08/30 06:51:43;;;;;;;30.83;17.17;;;;;;;20.70;66.13;99694.31;5135936;27;20415;-78
2021/08/30 06:54:08;;;;;;;29.17;16.90;;;;;;;20.56;67.04;99708.56;5135742;27;20050;-77
2021/08/30 06:56:37;;;;;;;30.05;16.25;;;;;;;20.34;66.32;99703.06;5135292;27;20078;-78
2021/08/30 06:59:02;;;;;;;28.63;16.33;;;;;;;20.31;67.07;99706.94;5132740;27;20095;-78
2021/08/30 07:01:28;;;;;;;25.33;15.52;;;;;;;20.65;66.21;99715.53;5134980;27;20133;-79
2021/08/30 07:03:54;;;;;;;34.90;16.23;;;;;;;21.63;63.44;99713.59;5135313;27;20042;-79
2021/08/30 07:06:20;;;;;;;28.98;16.17;;;;;;;21.57;63.21;99717.03;5135522;27;20054;-79
2021/08/30 07:08:45;;;;;;;25.85;14.70;;;;;;;21.48;63.21;99721.69;5135334;27;20122;-77
2021/08/30 07:11:11;;;;;;;24.85;14.93;;;;;;;21.15;63.67;99724.75;5135253;27;20043;-77
2021/08/30 07:13:37;;;;;;;24.20;15.30;;;;;;;21.62;63.06;99713.75;5135280;27;20129;-77
2021/08/30 07:16:03;;;;;;;27.05;15.13;;;;;;;21.61;62.99;99712.94;5134580;27;20353;-77
2021/08/30 07:18:29;;;;;;;32.42;16.48;;;;;;;21.28;63.84;99716.06;5134955;27;20825;-79
2021/08/30 07:20:55;;;;;;;24.38;15.35;;;;;;;21.58;63.84;99713.34;5133899;27;20046;-82
2021/08/30 07:23:20;;;;;;;26.55;15.50;;;;;;;21.95;62.34;99700.66;5134643;27;20503;-83
2021/08/30 07:25:46;;;;;;;21.90;14.35;;;;;;;21.93;61.69;99709.97;5133528;27;20500;-80
2021/08/30 07:28:12;;;;;;;32.38;14.90;;;;;;;22.02;61.84;99708.81;5133771;27;20199;-78
2021/08/30 07:30:38;;;;;;;24.38;14.00;;;;;;;21.82;61.71;99708.63;5134868;27;20051;-76
2021/08/30 07:33:04;;;;;;;24.73;14.65;;;;;;;21.76;61.86;99712.91;5134589;27;20043;-81
2021/08/30 07:35:30;;;;;;;27.73;15.02;;;;;;;21.81;62.45;99701.56;5135270;27;20039;-82
2021/08/30 07:37:56;;;;;;;24.85;13.75;;;;;;;21.80;62.55;99703.41;5134619;27;20074;-77
2021/08/30 07:40:22;;;;;;;22.40;13.68;;;;;;;21.72;61.86;99697.31;5133429;27;20038;-81
2021/08/30 07:42:48;;;;;;;31.13;14.68;;;;;;;21.63;62.37;99694.75;5133281;27;20580;-77
2021/08/30 07:45:13;;;;;;;25.65;14.18;;;;;;;21.56;62.49;99698.38;5134426;27;20063;-78
2021/08/30 07:47:42;;;;;;;27.60;14.65;;;;;;;21.50;62.97;99695.38;5134575;27;20408;-77
2021/08/30 07:50:10;;;;;;;26.20;14.77;;;;;;;21.61;62.68;99695.97;5134034;27;20035;-80
2021/08/30 07:52:36;;;;;;;;;;;;;;;21.62;63.09;99686.84;5134764;27;20054;-78
2021/08/30 07:55:02;;;;;;;31.27;13.95;;;;;;;21.45;62.88;99702.38;5133560;27;19923;-79
2021/08/30 07:57:27;;;;;;;25.95;13.75;;;;;;;21.47;63.17;99711.94;5115268;27;20039;-79
2021/08/30 07:59:53;;;;;;;25.30;14.88;;;;;;;21.65;62.28;99705.31;5132555;27;20130;-80
2021/08/30 08:02:19;;;;;;;24.92;14.52;;;;;;;21.74;62.80;99712.25;5134373;27;20121;-78
2021/08/30 08:04:45;;;;;;;22.27;14.05;;;;;;;21.71;62.56;99704.56;5134251;27;20193;-80
2021/08/30 08:07:11;;;;;;;20.00;13.93;;;;;;;21.81;61.77;99707.78;5133858;27;20039;-77
2021/08/30 08:09:36;;;;;;;28.90;15.23;;;;;;;21.86;61.95;99704.50;5133904;27;20134;-80
2021/08/30 08:12:02;;;;;;;25.48;14.05;;;;;;;21.97;61.70;99704.00;5133610;27;20039;-78
2021/08/30 08:14:28;;;;;;;30.10;14.13;;;;;;;22.19;60.68;99703.16;5132680;27;20043;-80
2021/08/30 08:16:54;;;;;;;22.63;13.57;;;;;;;23.06;59.19;99695.72;5133643;27;20547;-79
2021/08/30 08:19:20;;;;;;;26.10;13.50;;;;;;;24.56;54.95;99692.09;5133984;27;20047;-76
2021/08/30 08:21:47;;;;;;;25.10;14.35;;;;;;;25.62;52.12;99684.75;5134076;27;20525;-82
2021/08/30 08:24:13;;;;;;;22.67;12.90;;;;;;;25.64;51.32;99687.22;5132184;27;20045;-81
2021/08/30 08:26:38;;;;;;;20.63;13.13;;;;;;;25.37;52.17;99684.66;5133527;27;20599;-81
2021/08/30 08:29:04;;;;;;;23.58;13.45;;;;;;;25.11;52.66;99693.69;5133135;27;20042;-80
2021/08/30 08:31:31;;;;;;;21.85;13.55;;;;;;;26.63;50.04;99684.81;5132642;27;20046;-79
2021/08/30 08:33:57;;;;;;;25.40;13.55;;;;;;;28.53;45.49;99680.19;5133150;27;20035;-79
2021/08/30 08:36:23;;;;;;;23.17;13.13;;;;;;;29.34;43.20;99678.69;5133600;27;20088;-81
2021/08/30 08:38:49;;;;;;;23.92;13.35;;;;;;;29.91;41.48;99688.78;5133237;27;20071;-77
2021/08/30 08:41:15;;;;;;;25.98;12.70;;;;;;;28.91;42.47;99688.13;5133516;27;20477;-77
2021/08/30 08:43:42;;;;;;;24.67;13.43;;;;;;;27.81;44.98;99689.28;5115504;27;20077;-85
2021/08/30 08:46:08;;;;;;;22.83;13.50;;;;;;;26.94;47.02;99684.94;5131941;27;20463;-79
2021/08/30 08:48:34;;;;;;;18.37;13.27;;;;;;;28.39;43.92;99684.22;5132940;27;20560;-84
2021/08/30 08:51:00;;;;;;;25.35;13.73;;;;;;;28.40;44.15;99685.91;5114735;27;20069;-80
2021/08/30 08:53:26;;;;;;;27.48;13.88;;;;;;;28.77;43.09;99680.19;5131100;27;20043;-82
2021/08/30 08:55:53;;;;;;;21.55;13.40;;;;;;;29.85;40.66;99667.91;5132181;27;20058;-81
2021/08/30 08:58:20;;;;;;;26.25;13.95;;;;;;;30.47;39.91;99669.75;5098384;27;20039;-83
2021/08/30 09:01:12;;;;;;;20.80;13.25;;;;;;;30.79;39.12;99679.22;5132911;27;20043;-82
2021/08/30 09:03:50;;;;;;;26.55;12.35;;;;;;;32.68;36.27;99664.94;5098392;27;20043;-82
2021/08/30 09:06:40;;;;;;;24.05;13.77;;;;;;;31.76;36.56;99662.34;5098215;27;20415;-85
2021/08/30 09:09:13;;;;;;;22.35;12.77;;;;;;;30.90;38.46;99658.34;5114800;27;20043;-79
2021/08/30 09:11:43;;;;;;;22.55;13.35;;;;;;;30.04;40.50;99668.53;5132358;27;20047;-84
2021/08/30 09:14:21;;;;;;;35.17;14.40;;;;;;;29.58;39.61;99659.53;5132748;27;20059;-80
2021/08/30 09:16:47;;;;;;;25.17;13.93;;;;;;;29.57;40.14;99655.13;5115225;27;20091;-78
2021/08/30 09:19:17;;;;;;;24.08;14.07;;;;;;;29.31;40.09;99652.75;5132493;27;20047;-82
2021/08/30 09:21:48;;;;;;;32.42;14.40;;;;;;;28.85;41.53;99640.91;5132170;27;20046;-77
2021/08/30 09:24:17;;;;;;;28.52;15.27;;;;;;;28.15;42.92;99637.97;5114834;27;20050;-80
2021/08/30 09:27:03;;;;;;;43.03;24.95;;;;;;;27.82;44.65;99646.63;5131830;27;20070;-80
2021/08/30 09:29:31;;;;;;;22.65;14.10;;;;;;;27.12;45.71;99644.22;5131538;27;20496;-78
2021/08/30 09:32:14;;;;;;;23.17;13.57;;;;;;;26.82;46.48;99641.47;5132700;27;20039;-78
2021/08/30 09:34:48;;;;;;;26.35;14.20;;;;;;;26.72;47.17;99639.22;5132709;27;20039;-80
2021/08/30 09:37:18;;;;;;;26.55;13.98;;;;;;;26.57;47.17;99636.88;5133488;27;20442;-76
2021/08/30 09:39:49;;;;;;;23.77;13.77;;;;;;;26.52;47.93;99638.59;5132646;27;20074;-75
2021/08/30 09:42:15;;;;;;;23.98;13.68;;;;;;;26.21;48.60;99643.91;5133274;27;20035;-81
2021/08/30 09:44:41;;;;;;;21.48;13.48;;;;;;;25.91;49.55;99644.53;5130440;27;20047;-80
2021/08/30 09:47:09;;;;;;;24.77;13.68;;;;;;;26.10;49.39;99650.06;5132164;27;20043;-80
2021/08/30 09:49:35;;;;;;;25.38;12.15;;;;;;;26.32;49.21;99634.22;5114318;27;20468;-80
2021/08/30 09:52:01;;;;;;;22.52;12.57;;;;;;;26.59;48.40;99645.66;5133067;27;20050;-77
2021/08/30 09:54:27;;;;;;;25.38;13.27;;;;;;;26.53;48.67;99635.69;5132104;27;20047;-78
2021/08/30 09:56:54;;;;;;;29.77;13.77;;;;;;;26.49;49.42;99634.47;5131250;28;20047;-77
2021/08/30 09:59:21;;;;;;;25.37;13.20;;;;;;;26.66;48.89;99642.03;5132789;27;20035;-77
2021/08/30 10:01:47;;;;;;;;;;;;;;;26.69;48.61;99644.28;5115054;28;20035;-78
2021/08/30 10:04:19;;;;;;;24.10;13.67;;;;;;;26.83;48.65;99640.41;5115447;28;20351;-78
2021/08/30 10:06:48;;;;;;;22.60;13.55;;;;;;;26.76;48.64;99645.06;5110992;28;20137;-78
2021/08/30 10:09:15;;;;;;;29.30;14.77;;;;;;;26.66;49.39;99639.31;5110847;28;20662;-81
2021/08/30 10:11:43;;;;;;;30.65;14.23;;;;;;;26.84;48.76;99642.03;5110714;28;20087;-78
2021/08/30 10:14:15;;;;;;;26.63;13.00;;;;;;;26.84;47.66;99647.47;5112203;28;20069;-77
2021/08/30 10:16:42;;;;;;;25.63;14.30;;;;;;;27.13;47.25;99645.06;5093276;28;20046;-81
2021/08/30 10:19:08;;;;;;;25.70;13.43;;;;;;;27.36;46.62;99638.06;5110397;28;20050;-78
2021/08/30 10:21:43;;;;;;;25.35;13.43;;;;;;;27.29;46.40;99639.00;5110368;28;20088;-84
2021/08/30 10:24:16;;;;;;;20.88;11.95;;;;;;;27.17;46.25;99645.44;5130444;28;20043;-84
2021/08/30 10:26:44;;;;;;;23.20;12.52;;;;;;;27.19;45.55;99644.16;5132907;28;20051;-80
2021/08/30 10:29:11;;;;;;;25.88;12.20;;;;;;;27.09;44.90;99641.13;5113753;28;20142;-80
2021/08/30 10:31:50;;;;;;;22.10;12.35;;;;;;;27.35;43.61;99644.56;5114926;28;20047;-80
2021/08/30 10:34:33;;;;;;;23.13;11.30;;;;;;;27.48;43.02;99646.28;5132275;27;20043;-82
2021/08/30 10:37:01;;;;;;;23.85;12.32;;;;;;;27.59;41.74;99642.78;5114819;28;20542;-77
2021/08/30 10:39:56;;;;;;;23.92;11.38;;;;;;;27.60;41.07;99645.28;5131057;28;20051;-79
2021/08/30 10:42:22;;;;;;;18.77;10.98;;;;;;;27.60;41.46;99645.28;5069076;28;20057;-78
2021/08/30 10:44:51;;;;;;;20.77;12.13;;;;;;;27.64;41.47;99645.66;5069485;28;20127;-82
2021/08/30 10:47:17;;;;;;;22.10;11.52;;;;;;;27.77;41.20;99633.75;5068278;28;20543;-81
2021/08/30 10:49:43;;;;;;;21.15;10.63;;;;;;;28.50;39.79;99634.41;5052886;28;20040;-79
2021/08/30 10:52:16;;;;;;;23.80;12.05;;;;;;;29.69;37.28;99632.19;5065931;28;20053;-79
2021/08/30 10:54:56;;;;;;;19.35;11.02;;;;;;;29.50;37.58;99638.94;5048268;28;20048;-81
2021/08/30 10:57:35;;;;;;;21.80;11.73;;;;;;;29.29;37.60;99626.84;5052629;28;20055;-81
2021/08/30 11:00:06;;;;;;;23.25;10.65;;;;;;;29.46;36.93;99635.88;5035636;28;20057;-78
2021/08/30 11:02:41;;;;;;;21.80;11.18;;;;;;;29.31;37.39;99635.56;5035457;28;20053;-78
2021/08/30 11:05:08;;;;;;;24.15;10.45;;;;;;;29.53;36.95;99639.28;5019182;28;20155;-80
2021/08/30 11:07:37;;;;;;;21.02;11.05;;;;;;;29.76;36.61;99644.81;5052591;28;20199;-79
2021/08/30 11:10:05;;;;;;;18.85;10.60;;;;;;;29.91;36.13;99638.84;5052876;28;20091;-78
2021/08/30 11:12:32;;;;;;;24.85;10.68;;;;;;;29.76;36.34;99639.38;5051701;28;20065;-77
2021/08/30 11:14:59;;;;;;;17.75;10.98;;;;;;;29.21;36.67;99637.00;5051915;28;20186;-78
2021/08/30 11:17:32;;;;;;;20.30;11.05;;;;;;;29.37;37.13;99635.44;5051857;28;20513;-79
2021/08/30 11:19:59;;;;;;;22.30;11.93;;;;;;;29.60;36.75;99639.13;5115596;28;20049;-79
2021/08/30 11:22:26;;;;;;;19.25;11.50;;;;;;;29.66;36.85;99631.88;5121616;27;20050;-78
2021/08/30 11:24:52;;;;;;;32.40;16.05;;;;;;;29.40;37.03;99628.69;5133814;27;20495;-77
2021/08/30 11:27:21;;;;;;;30.45;16.33;;;;;;;29.28;37.87;99630.59;5133868;27;20043;-83